Time;durP1;ratioP1;P1;durP2;ratioP2;P2;SDS_P1;SDS_P2;PMS_P1;PMS_P2;Temp;Humidity;BMP_temperature;BMP_pressure;BME280_temperature;BME280_humidity;BME280_pressure;Samples;Min_cycle;Max_cycle;Signal;HPM_P1;HPM_P2
2023/10/24 00:03:52;;;;;;;22.87;15.40;;;6.60;99.90;;;;;;10282707;28;20293;-85
2023/10/24 00:08:54;;;;;;;27.40;16.83;;;6.60;99.90;;;;;;10247040;29;20245;-85
2023/10/24 00:13:57;;;;;;;31.60;19.73;;;6.50;99.90;;;;;;10282779;28;20650;-85
2023/10/24 00:18:59;;;;;;;21.40;15.93;;;6.30;99.90;;;;;;10285537;28;20298;-85
2023/10/24 00:24:02;;;;;;;27.07;16.67;;;6.30;99.90;;;;;;10285693;28;20237;-85
2023/10/24 00:29:05;;;;;;;23.00;16.90;;;6.20;99.90;;;;;;10284715;28;20316;-85
2023/10/24 00:34:12;;;;;;;20.90;15.03;;;6.20;99.90;;;;;;10284713;28;20265;-85
2023/10/24 00:39:15;;;;;;;25.67;17.13;;;6.40;99.90;;;;;;10283736;28;20253;-85
2023/10/24 00:44:17;;;;;;;31.47;18.30;;;6.40;99.90;;;;;;10268067;28;20293;-85
2023/10/24 00:49:20;;;;;;;16.13;11.53;;;6.30;99.90;;;;;;10285759;28;20624;-85
2023/10/24 00:54:23;;;;;;;30.93;18.80;;;6.50;99.90;;;;;;10285586;28;20293;-85
2023/10/24 00:59:27;;;;;;;27.57;18.30;;;6.50;99.90;;;;;;10267245;28;20659;-85
2023/10/24 01:04:30;;;;;;;30.97;17.90;;;6.70;99.90;;;;;;10288620;28;20240;-86
2023/10/24 01:09:33;;;;;;;29.97;19.50;;;6.60;99.90;;;;;;10257409;28;20700;-86
2023/10/24 01:14:36;;;;;;;32.93;18.87;;;6.70;99.90;;;;;;10291877;28;20653;-86
2023/10/24 01:19:40;;;;;;;29.50;18.90;;;6.60;99.90;;;;;;10274565;28;20269;-86
2023/10/24 01:24:43;;;;;;;28.70;18.87;;;6.60;99.90;;;;;;10274169;28;20269;-85
2023/10/24 01:29:46;;;;;;;22.43;15.93;;;6.60;99.90;;;;;;10254797;28;20249;-85
2023/10/24 01:34:48;;;;;;;24.00;15.73;;;6.80;99.90;;;;;;10251550;29;20710;-86
2023/10/24 01:39:51;;;;;;;27.30;18.23;;;6.70;99.90;;;;;;10251223;28;20262;-85
2023/10/24 01:44:54;;;;;;;29.90;17.70;;;6.80;99.90;;;;;;10250218;28;20250;-86
2023/10/24 01:49:56;;;;;;;19.13;12.80;;;6.70;99.90;;;;;;10277446;28;20238;-86
2023/10/24 01:54:59;;;;;;;18.77;14.13;;;6.80;99.90;;;;;;10291810;28;20312;-86
2023/10/24 02:00:03;;;;;;;21.43;14.60;;;7.00;99.90;;;;;;10273648;28;20300;-86
2023/10/24 02:05:14;;;;;;;22.47;15.30;;;7.00;99.90;;;;;;10275517;28;20712;-86
2023/10/24 02:10:16;;;;;;;22.30;16.27;;;7.10;99.90;;;;;;10290857;28;20233;-86
2023/10/24 02:15:19;;;;;;;17.97;13.40;;;7.10;99.90;;;;;;10290260;28;20253;-86
2023/10/24 02:20:22;;;;;;;22.33;15.60;;;7.20;99.90;;;;;;10268541;28;20265;-86
2023/10/24 02:25:24;;;;;;;16.43;12.83;;;7.30;99.90;;;;;;10252588;28;20680;-85
2023/10/24 02:30:27;;;;;;;14.33;12.00;;;7.40;99.90;;;;;;10277769;28;20242;-86
2023/10/24 02:35:29;;;;;;;30.63;16.03;;;7.50;99.90;;;;;;10272284;28;20241;-86
2023/10/24 02:40:32;;;;;;;19.20;14.00;;;7.50;99.90;;;;;;10290011;28;20276;-86
2023/10/24 02:45:38;;;;;;;15.20;13.07;;;7.60;99.90;;;;;;10272479;28;20253;-85
2023/10/24 02:50:42;;;;;;;19.03;15.30;;;7.70;99.90;;;;;;10256334;28;20285;-86
2023/10/24 02:55:44;;;;;;;17.60;12.47;;;7.70;99.90;;;;;;10289944;28;20302;-86
2023/10/24 03:00:47;;;;;;;19.53;15.07;;;7.90;99.90;;;;;;10289496;28;20880;-86
2023/10/24 03:05:50;;;;;;;19.67;13.73;;;8.20;99.90;;;;;;10288811;28;20233;-86
2023/10/24 03:10:52;;;;;;;18.83;14.63;;;8.30;99.90;;;;;;10271089;28;20288;-86
2023/10/24 03:15:55;;;;;;;21.50;16.20;;;8.40;99.90;;;;;;10288840;28;20714;-86
2023/10/24 03:20:58;;;;;;;21.40;15.80;;;8.60;99.90;;;;;;10270974;28;20276;-86
2023/10/24 03:26:03;;;;;;;16.57;12.83;;;8.70;99.90;;;;;;10270497;28;20245;-86
2023/10/24 03:31:08;;;;;;;24.10;17.43;;;8.80;99.90;;;;;;10287666;28;20280;-85
2023/10/24 03:36:15;;;;;;;23.67;16.57;;;8.70;99.90;;;;;;10269928;28;20262;-86
2023/10/24 03:41:18;;;;;;;23.43;16.00;;;8.60;99.90;;;;;;10287661;28;20292;-86
2023/10/24 03:46:21;;;;;;;19.50;13.23;;;8.70;99.90;;;;;;10287744;28;20289;-86
2023/10/24 03:51:24;;;;;;;23.67;15.50;;;8.60;99.90;;;;;;10287825;28;20819;-86
2023/10/24 03:56:27;;;;;;;19.83;14.30;;;8.60;99.90;;;;;;10287401;28;20332;-85
2023/10/24 04:01:30;;;;;;;18.27;12.90;;;8.70;99.90;;;;;;10286253;28;20233;-86
2023/10/24 04:06:34;;;;;;;20.03;15.30;;;8.70;99.90;;;;;;10286508;28;20260;-85
2023/10/24 04:11:36;;;;;;;19.97;16.23;;;8.70;99.90;;;;;;10285936;28;20663;-86
2023/10/24 04:16:39;;;;;;;20.83;14.57;;;8.80;99.90;;;;;;10284807;28;20662;-86
2023/10/24 04:21:42;;;;;;;21.67;15.07;;;8.90;99.90;;;;;;10285886;28;20229;-85
2023/10/24 04:26:44;;;;;;;16.90;13.50;;;9.10;99.90;;;;;;10285577;28;20309;-85
2023/10/24 04:31:47;;;;;;;24.07;18.17;;;9.60;99.90;;;;;;10267830;28;20285;-85
2023/10/24 04:36:50;;;;;;;11.93;8.73;;;9.70;99.90;;;;;;10285125;28;20292;-85
2023/10/24 04:41:53;;;;;;;22.93;17.77;;;9.70;99.90;;;;;;10290697;28;20260;-85
2023/10/24 04:46:55;;;;;;;24.80;17.70;;;9.80;99.90;;;;;;10290877;28;20228;-86
2023/10/24 04:51:59;;;;;;;23.40;16.60;;;9.60;99.90;;;;;;10307862;28;20291;-85
2023/10/24 04:57:01;;;;;;;21.77;16.30;;;9.50;99.90;;;;;;10297512;28;20289;-85
2023/10/24 05:02:04;;;;;;;19.20;14.20;;;9.50;99.90;;;;;;10304864;28;20284;-85
2023/10/24 05:07:07;;;;;;;19.93;14.53;;;9.60;99.90;;;;;;10310693;28;20710;-83
2023/10/24 05:12:12;;;;;;;30.90;22.67;;;10.20;99.90;;;;;;10306269;28;20285;-85
2023/10/24 05:17:14;;;;;;;27.00;18.63;;;10.50;99.90;;;;;;10306327;28;20252;-85
2023/10/24 05:22:17;;;;;;;27.17;20.47;;;11.00;99.90;;;;;;10311374;28;20232;-85
2023/10/24 05:27:21;;;;;;;29.90;21.30;;;11.10;99.90;;;;;;10305500;28;20287;-85
2023/10/24 05:32:25;;;;;;;27.50;20.70;;;10.90;99.90;;;;;;10307351;28;20288;-85
2023/10/24 05:37:28;;;;;;;23.77;17.57;;;10.90;99.90;;;;;;10307676;28;20241;-85
2023/10/24 05:42:31;;;;;;;26.53;19.00;;;11.00;99.90;;;;;;9755409;28;15182210;-85
2023/10/24 05:47:33;;;;;;;28.27;19.60;;;11.10;99.90;;;;;;10271112;28;20247;-85
2023/10/24 05:52:36;;;;;;;31.63;21.50;;;11.10;99.90;;;;;;10250891;28;20234;-85
2023/10/24 05:57:38;;;;;;;24.77;17.63;;;11.10;99.90;;;;;;10251082;28;20238;-85
2023/10/24 06:02:41;;;;;;;39.07;26.43;;;11.10;99.90;;;;;;10250221;29;20266;-85
2023/10/24 06:07:44;;;;;;;31.00;20.83;;;11.00;99.90;;;;;;10271882;28;20241;-85
2023/10/24 06:12:46;;;;;;;28.53;20.87;;;10.90;99.90;;;;;;10289224;28;20237;-85
2023/10/24 06:17:49;;;;;;;28.97;20.27;;;10.90;99.90;;;;;;10290054;28;20335;-85
2023/10/24 06:22:51;;;;;;;28.63;19.77;;;11.10;99.90;;;;;;10289838;28;20241;-84
2023/10/24 06:27:54;;;;;;;30.83;19.43;;;11.10;99.90;;;;;;10281415;28;20269;-85
2023/10/24 06:32:56;;;;;;;29.87;21.13;;;11.10;99.90;;;;;;10264294;28;20298;-85
2023/10/24 06:37:59;;;;;;;21.17;17.37;;;11.20;99.90;;;;;;10286537;28;20284;-85
2023/10/24 06:43:05;;;;;;;16.43;13.40;;;11.20;99.90;;;;;;10273151;28;20287;-85
2023/10/24 06:48:07;;;;;;;21.37;16.13;;;11.30;99.90;;;;;;10271306;28;20285;-85
2023/10/24 06:53:11;;;;;;;15.70;11.03;;;11.50;99.90;;;;;;10272998;28;20245;-85
2023/10/24 06:58:14;;;;;;;30.47;18.83;;;11.50;99.90;;;;;;10291210;28;20647;-85
2023/10/24 07:03:16;;;;;;;30.63;21.30;;;11.40;99.90;;;;;;10301780;28;20738;-84
2023/10/24 07:08:20;;;;;;;21.67;14.13;;;11.30;99.90;;;;;;10275896;28;20233;-84
2023/10/24 07:13:22;;;;;;;26.10;17.37;;;11.60;99.90;;;;;;10271331;28;20663;-85
2023/10/24 07:18:25;;;;;;;25.97;17.87;;;11.70;99.90;;;;;;10270168;28;20236;-85
2023/10/24 07:23:28;;;;;;;18.20;14.70;;;11.60;99.90;;;;;;10288255;28;20241;-85
2023/10/24 07:28:30;;;;;;;21.77;13.93;;;11.60;99.90;;;;;;10270076;28;20273;-85
2023/10/24 07:33:33;;;;;;;21.57;13.83;;;11.60;99.90;;;;;;10270348;28;20253;-85
2023/10/24 07:38:36;;;;;;;18.20;12.20;;;11.80;99.90;;;;;;10287745;28;20308;-85
2023/10/24 07:43:38;;;;;;;17.57;13.23;;;11.90;99.90;;;;;;10287356;28;20249;-85
2023/10/24 07:48:41;;;;;;;21.10;15.10;;;12.20;99.90;;;;;;10286858;28;20294;-85
2023/10/24 07:53:44;;;;;;;15.67;11.60;;;12.40;99.90;;;;;;10287235;28;20252;-85
2023/10/24 07:58:46;;;;;;;18.93;13.33;;;12.60;99.90;;;;;;10269946;28;20284;-85
2023/10/24 08:03:49;;;;;;;13.13;10.67;;;12.80;99.90;;;;;;10286961;28;20289;-85
2023/10/24 08:08:51;;;;;;;14.97;12.10;;;13.00;99.90;;;;;;10286755;28;20236;-85
2023/10/24 08:13:54;;;;;;;19.60;12.90;;;13.30;99.90;;;;;;10286673;28;20312;-85
2023/10/24 08:18:58;;;;;;;13.20;11.47;;;13.50;99.90;;;;;;10269630;28;20626;-85
2023/10/24 08:24:00;;;;;;;18.63;11.80;;;13.70;99.90;;;;;;10285906;28;20642;-84
2023/10/24 08:29:03;;;;;;;17.90;12.23;;;13.90;99.90;;;;;;10286436;28;20705;-85
2023/10/24 08:34:06;;;;;;;12.73;10.07;;;14.10;99.90;;;;;;10286454;28;20245;-85
2023/10/24 08:39:09;;;;;;;11.77;9.30;;;14.20;99.90;;;;;;10286028;28;20323;-84
2023/10/24 08:44:12;;;;;;;17.70;11.80;;;14.40;99.90;;;;;;10285876;28;20661;-84
2023/10/24 08:49:15;;;;;;;15.17;10.63;;;14.60;99.90;;;;;;10271635;28;20292;-84
2023/10/24 08:54:18;;;;;;;13.50;10.80;;;15.00;99.90;;;;;;10282831;28;20254;-85
2023/10/24 08:59:21;;;;;;;11.03;8.17;;;15.40;99.90;;;;;;10279851;28;20237;-85
2023/10/24 09:04:24;;;;;;;16.13;11.30;;;15.60;99.90;;;;;;10273454;28;20237;-85
2023/10/24 09:09:26;;;;;;;14.13;10.10;;;15.60;99.90;;;;;;10243985;28;20249;-84
2023/10/24 09:14:29;;;;;;;11.13;8.23;;;15.70;99.90;;;;;;10244238;28;20255;-84
2023/10/24 09:19:46;;;;;;;11.27;8.10;;;15.70;99.90;;;;;;10268369;28;20242;-84
2023/10/24 09:24:50;;;;;;;11.80;7.60;;;15.70;99.90;;;;;;10246565;28;20645;-85
2023/10/24 09:29:52;;;;;;;11.07;7.90;;;15.70;99.90;;;;;;10278451;28;20275;-85
2023/10/24 09:35:02;;;;;;;12.47;7.60;;;16.00;99.90;;;;;;10284416;28;20289;-85
2023/10/24 09:40:06;;;;;;;11.40;8.10;;;16.10;99.90;;;;;;10290967;28;20332;-84
2023/10/24 09:45:11;;;;;;;13.37;10.53;;;16.10;99.90;;;;;;10291060;28;20249;-85
2023/10/24 09:50:14;;;;;;;13.63;7.87;;;16.10;99.90;;;;;;10288599;28;20233;-85
2023/10/24 09:55:17;;;;;;;14.23;8.90;;;16.10;99.90;;;;;;10287384;28;20257;-85
2023/10/24 10:00:21;;;;;;;9.80;7.40;;;16.20;99.90;;;;;;10256967;28;20294;-84
2023/10/24 10:05:27;;;;;;;14.33;9.23;;;16.10;99.90;;;;;;10294159;28;20297;-85
2023/10/24 10:10:31;;;;;;;16.77;9.70;;;16.00;99.90;;;;;;10249989;29;20245;-85
2023/10/24 10:15:55;;;;;;;14.40;9.20;;;16.00;99.90;;;;;;10249886;28;20268;-85
2023/10/24 10:21:24;;;;;;;11.10;8.53;;;16.00;99.90;;;;;;10249318;29;20289;-85
2023/10/24 10:27:07;;;;;;;12.97;8.87;;;16.10;99.90;;;;;;10288465;28;20295;-85
2023/10/24 10:32:45;;;;;;;14.33;7.77;;;16.10;99.90;;;;;;10293393;28;20304;-85
2023/10/24 10:38:07;;;;;;;11.60;7.77;;;16.10;99.90;;;;;;10304715;28;20314;-85
2023/10/24 10:43:29;;;;;;;10.37;7.67;;;16.10;99.90;;;;;;10323858;28;20238;-85
2023/10/24 10:48:31;;;;;;;15.97;8.07;;;16.20;99.90;;;;;;10289694;28;20229;-85
2023/10/24 10:53:59;;;;;;;11.27;8.53;;;16.20;99.90;;;;;;10312906;28;20633;-85
2023/10/24 10:59:07;;;;;;;12.30;7.13;;;16.20;99.90;;;;;;10271131;28;20237;-84
2023/10/24 11:04:14;;;;;;;8.27;6.53;;;16.40;99.90;;;;;;10299538;28;20227;-85
2023/10/24 11:09:20;;;;;;;10.83;6.93;;;16.40;99.90;;;;;;10305232;28;20221;-84
2023/10/24 11:14:23;;;;;;;9.53;7.50;;;16.50;99.90;;;;;;10307682;28;20277;-84
2023/10/24 11:19:28;;;;;;;11.37;8.37;;;16.50;99.90;;;;;;10280822;28;20255;-85
2023/10/24 11:24:34;;;;;;;10.87;8.33;;;16.50;99.90;;;;;;10305089;28;20769;-83
2023/10/24 11:29:38;;;;;;;9.70;6.50;;;16.50;99.90;;;;;;10302294;28;20660;-84
2023/10/24 11:34:41;;;;;;;19.27;10.03;;;16.50;99.90;;;;;;10307471;28;20741;-84
2023/10/24 11:39:44;;;;;;;13.00;7.93;;;16.50;99.90;;;;;;10306319;28;20701;-85
2023/10/24 11:44:47;;;;;;;10.13;7.03;;;16.40;99.90;;;;;;10307850;28;20271;-84
2023/10/24 11:49:50;;;;;;;9.23;6.83;;;16.40;99.90;;;;;;10282347;28;20304;-85
2023/10/24 11:54:53;;;;;;;11.27;7.60;;;16.30;99.90;;;;;;10284504;28;20260;-84
2023/10/24 11:59:56;;;;;;;11.37;8.00;;;16.40;99.90;;;;;;10245912;28;20308;-85
2023/10/24 12:05:01;;;;;;;7.93;6.63;;;16.40;99.90;;;;;;10283269;28;20248;-84
2023/10/24 12:10:12;;;;;;;9.20;6.40;;;16.60;99.90;;;;;;10313591;28;20636;-84
2023/10/24 12:15:15;;;;;;;7.60;6.10;;;16.60;99.90;;;;;;10285201;28;20654;-84
2023/10/24 12:20:20;;;;;;;10.97;7.00;;;16.70;99.90;;;;;;10283992;28;20237;-85
2023/10/24 12:25:23;;;;;;;10.63;6.70;;;16.70;99.90;;;;;;10281068;28;20236;-84
2023/10/24 12:30:26;;;;;;;9.20;6.43;;;16.70;99.90;;;;;;10269356;28;20641;-84
2023/10/24 12:35:29;;;;;;;9.13;7.60;;;16.80;99.90;;;;;;10283037;28;20326;-85
2023/10/24 12:40:31;;;;;;;9.23;7.03;;;16.70;99.90;;;;;;10282919;28;20262;-84
2023/10/24 12:45:34;;;;;;;6.80;6.00;;;16.80;99.90;;;;;;10284861;28;20239;-84
2023/10/24 12:50:37;;;;;;;6.23;5.63;;;16.60;99.90;;;;;;10265163;28;20238;-85
2023/10/24 12:55:40;;;;;;;14.40;8.97;;;16.60;99.90;;;;;;10282749;28;20265;-85
2023/10/24 13:00:45;;;;;;;11.27;8.70;;;16.50;99.90;;;;;;10239239;28;20799;-85
2023/10/24 13:05:47;;;;;;;10.37;7.83;;;16.40;99.90;;;;;;10288795;28;20243;-84
2023/10/24 13:10:50;;;;;;;8.07;6.30;;;16.30;99.90;;;;;;10291700;28;20305;-84
2023/10/24 13:15:53;;;;;;;11.57;7.23;;;16.20;99.90;;;;;;10274866;28;20345;-84
2023/10/24 13:20:55;;;;;;;10.33;7.93;;;16.10;99.90;;;;;;10292529;28;20740;-84
2023/10/24 13:25:58;;;;;;;12.77;7.80;;;15.90;99.90;;;;;;10289597;28;20645;-83
2023/10/24 13:31:01;;;;;;;10.93;7.00;;;15.80;99.90;;;;;;10284566;28;20615;-84
2023/10/24 13:36:17;;;;;;;15.23;7.77;;;15.80;99.90;;;;;;10290308;28;20271;-85
2023/10/24 13:41:25;;;;;;;10.77;6.33;;;15.90;99.90;;;;;;10274820;28;20298;-85
2023/10/24 13:46:32;;;;;;;9.03;7.10;;;15.90;99.90;;;;;;10288341;28;20252;-85
2023/10/24 13:51:35;;;;;;;11.10;6.40;;;15.90;99.90;;;;;;10286511;28;20241;-85
2023/10/24 13:56:38;;;;;;;10.40;6.77;;;15.80;99.90;;;;;;10268365;28;20718;-85
2023/10/24 14:01:41;;;;;;;12.57;8.20;;;15.80;99.90;;;;;;10264562;28;20297;-85
2023/10/24 14:06:43;;;;;;;11.03;6.97;;;15.70;99.90;;;;;;10267866;28;20247;-85
2023/10/24 14:11:46;;;;;;;11.10;6.70;;;15.60;99.90;;;;;;10281518;28;20241;-85
2023/10/24 14:16:49;;;;;;;11.37;7.07;;;15.60;99.90;;;;;;10254025;28;20271;-85
2023/10/24 14:21:54;;;;;;;12.10;6.37;;;15.50;99.90;;;;;;10286998;28;20616;-85
2023/10/24 14:26:56;;;;;;;9.40;6.67;;;15.40;99.90;;;;;;10287140;28;20300;-85
2023/10/24 14:31:59;;;;;;;9.73;5.73;;;15.40;99.90;;;;;;10281575;28;20254;-85
2023/10/24 14:37:03;;;;;;;8.47;6.57;;;15.20;99.90;;;;;;10282952;28;20268;-86
2023/10/24 14:42:06;;;;;;;13.47;7.43;;;15.20;99.90;;;;;;10284909;28;20625;-85
2023/10/24 14:47:09;;;;;;;9.40;7.07;;;15.30;99.90;;;;;;10287859;28;20232;-85
2023/10/24 14:52:11;;;;;;;10.37;6.73;;;15.20;99.90;;;;;;10259791;28;20243;-83
2023/10/24 14:57:14;;;;;;;15.30;7.43;;;15.20;99.90;;;;;;10281721;28;20246;-83
2023/10/24 15:02:17;;;;;;;6.43;5.17;;;15.10;99.90;;;;;;10276137;28;20233;-85
2023/10/24 15:07:19;;;;;;;16.83;6.80;;;15.10;99.90;;;;;;10288723;28;20293;-85
2023/10/24 15:12:22;;;;;;;10.13;6.17;;;15.10;99.90;;;;;;10285282;28;20634;-85
2023/10/24 15:17:25;;;;;;;12.40;7.40;;;15.10;99.90;;;;;;10288093;28;20257;-85
2023/10/24 15:22:27;;;;;;;8.07;5.90;;;15.10;99.90;;;;;;10286906;28;20233;-85
2023/10/24 15:27:30;;;;;;;8.80;6.03;;;15.10;99.90;;;;;;10287488;28;20321;-85
2023/10/24 15:32:32;;;;;;;7.93;6.50;;;14.90;99.90;;;;;;10269898;28;20245;-85
2023/10/24 15:37:35;;;;;;;14.83;8.63;;;15.10;99.90;;;;;;10284338;28;20644;-86
2023/10/24 15:42:38;;;;;;;13.40;9.33;;;15.00;99.90;;;;;;10283554;28;20275;-86
2023/10/24 15:47:41;;;;;;;10.00;7.80;;;14.90;99.90;;;;;;10262772;28;20205;-86
2023/10/24 15:52:45;;;;;;;16.17;11.23;;;14.90;99.90;;;;;;10289541;28;20237;-86
2023/10/24 15:57:47;;;;;;;11.83;6.90;;;14.80;99.90;;;;;;10287677;28;20265;-86
2023/10/24 16:02:50;;;;;;;18.80;11.73;;;14.70;99.90;;;;;;10289057;28;20614;-86
2023/10/24 16:07:53;;;;;;;13.43;8.97;;;14.70;99.90;;;;;;10251214;28;20618;-85
2023/10/24 16:12:56;;;;;;;12.33;8.40;;;14.70;99.90;;;;;;10248016;28;20219;-86
2023/10/24 16:17:58;;;;;;;13.47;10.77;;;14.60;99.90;;;;;;10250602;28;20339;-86
2023/10/24 16:23:02;;;;;;;15.43;9.90;;;14.40;99.90;;;;;;10287793;28;20227;-86
2023/10/24 16:28:05;;;;;;;16.43;11.73;;;14.40;99.90;;;;;;10264109;28;20210;-86
2023/10/24 16:33:08;;;;;;;19.30;10.00;;;14.20;99.90;;;;;;10284154;28;20236;-86
2023/10/24 16:38:11;;;;;;;14.03;9.33;;;14.30;99.90;;;;;;10273587;28;20316;-86
2023/10/24 16:43:15;;;;;;;13.23;7.70;;;14.30;99.90;;;;;;10298044;28;20209;-86
2023/10/24 16:48:20;;;;;;;10.70;7.80;;;14.30;99.90;;;;;;10298885;28;20221;-86
2023/10/24 16:53:24;;;;;;;14.30;10.90;;;14.30;99.90;;;;;;10292586;28;20206;-86
2023/10/24 16:58:26;;;;;;;10.53;7.07;;;14.20;99.90;;;;;;10286262;28;20510;-86
2023/10/24 17:03:29;;;;;;;12.77;8.10;;;14.20;99.90;;;;;;10297711;28;20231;-85
2023/10/24 17:08:32;;;;;;;13.10;9.33;;;14.10;99.90;;;;;;10282152;28;20202;-85
2023/10/24 17:13:38;;;;;;;17.67;13.37;;;14.10;99.90;;;;;;10297032;28;20941;-86
2023/10/24 17:18:41;;;;;;;17.20;13.47;;;13.80;99.90;;;;;;10297860;28;20318;-85
2023/10/24 17:23:43;;;;;;;19.10;14.67;;;13.50;99.90;;;;;;10320322;28;20252;-86
2023/10/24 17:28:46;;;;;;;22.13;13.87;;;13.30;99.90;;;;;;10312217;28;20579;-86
2023/10/24 17:33:49;;;;;;;23.33;14.97;;;13.20;99.90;;;;;;10284108;28;20212;-85
2023/10/24 17:38:51;;;;;;;27.33;14.93;;;13.10;99.90;;;;;;10308243;28;20235;-85
2023/10/24 17:43:54;;;;;;;19.60;13.83;;;13.00;99.90;;;;;;10330346;28;20208;-86
2023/10/24 17:48:56;;;;;;;20.33;13.47;;;13.00;99.90;;;;;;10317623;28;20229;-86
2023/10/24 17:53:59;;;;;;;19.03;12.97;;;12.90;99.90;;;;;;10325737;28;20213;-86
2023/10/24 17:59:01;;;;;;;23.47;15.93;;;12.80;99.90;;;;;;10348767;28;20213;-86
2023/10/24 18:04:04;;;;;;;26.47;15.33;;;12.70;99.90;;;;;;10359377;28;20189;-87
2023/10/24 18:09:07;;;;;;;16.23;12.60;;;12.80;99.90;;;;;;10327886;28;20214;-87
2023/10/24 18:14:10;;;;;;;22.60;15.13;;;12.70;99.90;;;;;;10345840;28;20190;-86
2023/10/24 18:19:12;;;;;;;16.10;9.37;;;12.70;99.90;;;;;;10345055;28;20237;-86
2023/10/24 18:24:15;;;;;;;17.27;10.47;;;12.70;99.90;;;;;;10350810;28;20190;-89
2023/10/24 18:29:17;;;;;;;13.97;10.07;;;13.00;99.90;;;;;;10346456;28;20202;-90
2023/10/24 18:34:20;;;;;;;23.03;8.60;;;13.30;99.90;;;;;;10285757;28;20613;-86
2023/10/24 18:39:23;;;;;;;21.30;8.97;;;13.50;99.90;;;;;;10275659;28;20258;-86
2023/10/24 18:44:25;;;;;;;22.70;10.80;;;13.60;99.90;;;;;;10292540;28;20261;-87
2023/10/24 18:49:28;;;;;;;21.17;10.23;;;13.80;99.90;;;;;;10274447;28;20223;-87
2023/10/24 18:54:30;;;;;;;21.17;9.97;;;13.90;99.90;;;;;;10291612;28;20249;-85
2023/10/24 18:59:33;;;;;;;22.97;14.57;;;14.10;99.90;;;;;;10288886;28;20249;-85
2023/10/24 19:04:36;;;;;;;18.93;14.37;;;13.90;99.90;;;;;;10270037;28;20206;-85
2023/10/24 19:09:39;;;;;;;26.27;11.90;;;13.90;99.90;;;;;;10283125;28;20652;-85
2023/10/24 19:14:45;;;;;;;22.67;12.17;;;14.10;99.90;;;;;;10283810;28;20222;-86
2023/10/24 19:19:49;;;;;;;15.67;12.13;;;14.20;99.90;;;;;;10271144;28;20335;-85
2023/10/24 19:24:52;;;;;;;18.37;14.00;;;14.20;99.90;;;;;;10271215;28;21091;-86
2023/10/24 19:29:55;;;;;;;17.40;10.77;;;14.20;99.90;;;;;;10266773;28;20238;-85
2023/10/24 19:34:58;;;;;;;24.13;10.00;;;14.10;99.90;;;;;;10289911;28;20546;-86
2023/10/24 19:40:01;;;;;;;16.90;11.10;;;14.20;99.90;;;;;;10267158;28;20269;-86
2023/10/24 19:45:05;;;;;;;20.87;9.63;;;14.20;99.90;;;;;;10277816;28;20633;-86
2023/10/24 19:50:08;;;;;;;25.33;10.53;;;14.20;99.90;;;;;;10289078;28;20569;-88
2023/10/24 19:55:14;;;;;;;18.33;14.13;;;14.10;99.90;;;;;;10289376;28;20569;-86
2023/10/24 20:00:34;;;;;;;13.80;10.00;;;14.00;99.90;;;;;;10251197;28;20312;-87
2023/10/24 20:05:38;;;;;;;21.60;9.80;;;13.80;99.90;;;;;;10265752;28;20728;-86
2023/10/24 20:10:42;;;;;;;21.07;15.43;;;13.90;99.90;;;;;;10276327;28;20319;-87
2023/10/24 20:16:05;;;;;;;20.60;13.03;;;13.90;99.90;;;;;;10291922;28;20213;-87
2023/10/24 20:21:08;;;;;;;21.47;14.33;;;13.80;99.90;;;;;;10292629;28;20616;-87
2023/10/24 20:26:10;;;;;;;13.60;10.77;;;13.70;99.90;;;;;;10290323;28;20209;-86
2023/10/24 20:31:13;;;;;;;21.43;16.53;;;13.60;99.90;;;;;;10292712;28;20248;-86
2023/10/24 20:36:16;;;;;;;21.27;15.57;;;13.60;99.90;;;;;;10292335;28;20741;-86
2023/10/24 20:41:18;;;;;;;20.13;14.30;;;13.60;99.90;;;;;;10276018;28;20234;-85
2023/10/24 20:46:21;;;;;;;22.13;13.10;;;13.60;99.90;;;;;;10294651;28;20223;-86
2023/10/24 20:51:23;;;;;;;18.70;14.23;;;13.50;99.90;;;;;;10302894;28;20210;-86
2023/10/24 20:56:26;;;;;;;22.10;16.70;;;13.40;99.90;;;;;;10311818;28;20215;-86
2023/10/24 21:01:29;;;;;;;20.13;14.33;;;13.40;99.90;;;;;;10312506;28;20206;-87
2023/10/24 21:06:31;;;;;;;15.47;11.60;;;13.40;99.90;;;;;;10320597;28;20238;-87
2023/10/24 21:11:34;;;;;;;17.70;11.67;;;13.50;99.90;;;;;;10306264;28;20210;-87
2023/10/24 21:16:37;;;;;;;21.87;15.67;;;13.40;99.90;;;;;;10337115;28;20216;-87
2023/10/24 21:21:41;;;;;;;18.00;9.40;;;13.40;99.90;;;;;;10336502;28;20207;-87
2023/10/24 21:26:44;;;;;;;19.77;12.63;;;13.40;99.90;;;;;;10336472;28;20188;-87
2023/10/24 21:31:48;;;;;;;19.90;12.17;;;13.30;99.90;;;;;;10317807;28;20202;-87
2023/10/24 21:36:51;;;;;;;25.73;16.40;;;13.30;99.90;;;;;;10330003;28;20218;-87
2023/10/24 21:41:55;;;;;;;21.30;15.77;;;13.20;99.90;;;;;;10335809;28;20233;-87
2023/10/24 21:46:58;;;;;;;17.37;12.07;;;13.00;99.90;;;;;;10336754;28;20243;-87
2023/10/24 21:52:00;;;;;;;17.10;12.13;;;13.00;99.90;;;;;;10337689;28;20190;-87
2023/10/24 21:57:03;;;;;;;20.53;14.97;;;13.00;99.90;;;;;;10337178;28;20221;-87
2023/10/24 22:02:06;;;;;;;13.20;10.07;;;13.00;99.90;;;;;;10337535;28;20229;-87
2023/10/24 22:07:08;;;;;;;18.37;13.60;;;13.00;99.90;;;;;;10332467;28;20198;-87
2023/10/24 22:12:11;;;;;;;20.50;12.27;;;13.00;99.90;;;;;;10335261;28;20225;-87
2023/10/24 22:17:13;;;;;;;16.67;11.67;;;13.00;99.90;;;;;;10316565;28;20248;-87
2023/10/24 22:22:16;;;;;;;17.23;12.90;;;13.00;99.90;;;;;;10332770;28;20209;-87
2023/10/24 22:27:18;;;;;;;20.97;16.07;;;12.90;99.90;;;;;;10329565;28;20299;-87
2023/10/24 22:32:21;;;;;;;19.17;13.30;;;12.90;99.90;;;;;;10337035;28;20202;-87
2023/10/24 22:37:23;;;;;;;23.93;15.27;;;12.90;99.90;;;;;;10332597;28;20221;-87
2023/10/24 22:42:26;;;;;;;27.13;15.90;;;12.90;99.90;;;;;;10338119;28;20224;-87
2023/10/24 22:47:28;;;;;;;22.47;16.97;;;12.80;99.90;;;;;;10335552;28;20206;-87
2023/10/24 22:52:31;;;;;;;20.43;12.03;;;12.70;99.90;;;;;;10321599;28;20192;-87
2023/10/24 22:57:33;;;;;;;20.87;16.00;;;12.70;99.90;;;;;;10336954;28;20242;-87
2023/10/24 23:02:36;;;;;;;26.83;17.17;;;12.70;99.90;;;;;;10336354;28;20203;-84
2023/10/24 23:07:38;;;;;;;14.43;10.07;;;12.60;99.90;;;;;;10337051;28;20205;-85
2023/10/24 23:12:41;;;;;;;25.47;14.83;;;12.70;99.90;;;;;;10337237;28;20209;-86
2023/10/24 23:17:44;;;;;;;25.43;18.20;;;12.50;99.90;;;;;;10335735;28;20227;-86
2023/10/24 23:22:46;;;;;;;23.73;17.07;;;12.60;99.90;;;;;;10335216;28;20179;-86
2023/10/24 23:27:48;;;;;;;22.43;17.70;;;12.60;99.90;;;;;;10335162;28;20224;-86
2023/10/24 23:32:51;;;;;;;19.57;14.30;;;12.50;99.90;;;;;;10335425;28;20208;-86
2023/10/24 23:37:53;;;;;;;26.83;19.87;;;12.60;99.90;;;;;;10338755;28;20217;-85
2023/10/24 23:42:56;;;;;;;16.77;13.20;;;12.60;99.90;;;;;;10321338;28;20205;-85
2023/10/24 23:47:58;;;;;;;27.03;18.67;;;12.60;99.90;;;;;;10309506;28;20230;-85
2023/10/24 23:53:01;;;;;;;19.30;14.20;;;12.50;99.90;;;;;;10296419;28;20748;-85
2023/10/24 23:58:04;;;;;;;26.27;19.63;;;12.50;99.90;;;;;;10254267;28;20226;-86
